OMDB

Dubai International Airport

Dubai, United Arab Emirates
METAR OMDB 171000Z 27009KT 200V300 9999 SCT040 22/11 Q1014 NOSIG
Observed Flight Rules
Jan-17 @ 10:00 UTC (52 minutes ago) Visual Flight Rules
Wind Visibility Clouds
270° at 9 knots 10,000+ meters
  • Scattered at 4,000' AGL
Temperatures Readings
Current 22°C / 72°F
Dewpoint 11°C / 52°F
Humidity 50%
Altimeter 29.94" Hg
Pressure 1014 hPa
Elevation 5
METAR OMDB 171000Z 27009KT 200V300 9999 SCT040 22/11 Q1014 NOSIG
Observed Flight Rules
Jan-17 @ 10:00 UTC
(52 minutes ago)
VFR
Wind Visibility
270° at 9 knots 10,000+ meters
Clouds
  • Scattered at 4,000' AGL
Temperature Dewpoint
22°C / 72°F 11°C / 52°F
Humidity Altimeter Pressure
50% 29.94" Hg 1014 hPa